sensor_id;sensor_type;location;lat;lon;timestamp;temperature;humidity
39519;DHT22;25200;53.394;10.414;2022-07-23T00:01:01;20.00;57.20
39519;DHT22;25200;53.394;10.414;2022-07-23T00:03:27;20.00;57.20
39519;DHT22;25200;53.394;10.414;2022-07-23T00:05:53;20.00;57.30
39519;DHT22;25200;53.394;10.414;2022-07-23T00:08:18;19.90;57.30
39519;DHT22;25200;53.394;10.414;2022-07-23T00:10:44;19.90;57.40
39519;DHT22;25200;53.394;10.414;2022-07-23T00:13:10;19.90;57.40
39519;DHT22;25200;53.394;10.414;2022-07-23T00:15:36;19.90;57.40
39519;DHT22;25200;53.394;10.414;2022-07-23T00:18:02;19.80;57.40
39519;DHT22;25200;53.394;10.414;2022-07-23T00:20:27;19.80;57.40
39519;DHT22;25200;53.394;10.414;2022-07-23T00:22:54;19.80;57.50
39519;DHT22;25200;53.394;10.414;2022-07-23T00:25:22;19.80;57.60
39519;DHT22;25200;53.394;10.414;2022-07-23T00:27:47;19.80;57.80
39519;DHT22;25200;53.394;10.414;2022-07-23T00:30:14;19.80;57.60
39519;DHT22;25200;53.394;10.414;2022-07-23T00:32:47;19.70;57.60
39519;DHT22;25200;53.394;10.414;2022-07-23T00:35:13;19.70;57.80
39519;DHT22;25200;53.394;10.414;2022-07-23T00:37:38;19.70;57.90
39519;DHT22;25200;53.394;10.414;2022-07-23T00:40:04;19.60;57.90
39519;DHT22;25200;53.394;10.414;2022-07-23T00:42:32;19.60;57.90
39519;DHT22;25200;53.394;10.414;2022-07-23T00:44:58;19.60;58.00
39519;DHT22;25200;53.394;10.414;2022-07-23T00:47:23;19.60;58.20
39519;DHT22;25200;53.394;10.414;2022-07-23T00:49:49;19.50;57.90
39519;DHT22;25200;53.394;10.414;2022-07-23T00:52:15;19.60;58.30
39519;DHT22;25200;53.394;10.414;2022-07-23T00:54:41;19.50;58.10
39519;DHT22;25200;53.394;10.414;2022-07-23T00:57:07;19.50;58.30
39519;DHT22;25200;53.394;10.414;2022-07-23T00:59:33;19.50;58.10
39519;DHT22;25200;53.394;10.414;2022-07-23T01:01:58;19.50;58.30
39519;DHT22;25200;53.394;10.414;2022-07-23T01:04:24;19.50;58.30
39519;DHT22;25200;53.394;10.414;2022-07-23T01:06:50;19.50;58.30
39519;DHT22;25200;53.394;10.414;2022-07-23T01:09:15;19.40;58.30
39519;DHT22;25200;53.394;10.414;2022-07-23T01:11:41;19.40;58.30
39519;DHT22;25200;53.394;10.414;2022-07-23T01:14:13;19.40;58.40
39519;DHT22;25200;53.394;10.414;2022-07-23T01:16:40;19.40;58.40
39519;DHT22;25200;53.394;10.414;2022-07-23T01:19:06;19.40;58.50
39519;DHT22;25200;53.394;10.414;2022-07-23T01:21:38;19.30;58.20
39519;DHT22;25200;53.394;10.414;2022-07-23T01:24:04;19.30;58.40
39519;DHT22;25200;53.394;10.414;2022-07-23T01:26:30;19.30;58.60
39519;DHT22;25200;53.394;10.414;2022-07-23T01:28:57;19.30;58.60
39519;DHT22;25200;53.394;10.414;2022-07-23T01:31:22;19.30;58.70
39519;DHT22;25200;53.394;10.414;2022-07-23T01:33:48;19.30;58.40
39519;DHT22;25200;53.394;10.414;2022-07-23T01:36:14;19.30;58.50
39519;DHT22;25200;53.394;10.414;2022-07-23T01:38:40;19.20;58.60
39519;DHT22;25200;53.394;10.414;2022-07-23T01:41:05;19.20;58.40
39519;DHT22;25200;53.394;10.414;2022-07-23T01:43:31;19.20;58.60
39519;DHT22;25200;53.394;10.414;2022-07-23T01:45:57;19.20;58.40
39519;DHT22;25200;53.394;10.414;2022-07-23T01:48:23;19.20;58.40
39519;DHT22;25200;53.394;10.414;2022-07-23T01:50:48;19.10;58.10
39519;DHT22;25200;53.394;10.414;2022-07-23T01:53:14;19.10;58.70
39519;DHT22;25200;53.394;10.414;2022-07-23T01:55:41;19.10;58.50
39519;DHT22;25200;53.394;10.414;2022-07-23T01:58:07;19.10;58.80
39519;DHT22;25200;53.394;10.414;2022-07-23T02:00:32;19.00;58.80
39519;DHT22;25200;53.394;10.414;2022-07-23T02:02:58;18.90;58.60
39519;DHT22;25200;53.394;10.414;2022-07-23T02:05:25;18.90;58.90
39519;DHT22;25200;53.394;10.414;2022-07-23T02:07:51;18.90;58.80
39519;DHT22;25200;53.394;10.414;2022-07-23T02:10:17;18.90;58.70
39519;DHT22;25200;53.394;10.414;2022-07-23T02:12:43;18.80;58.70
39519;DHT22;25200;53.394;10.414;2022-07-23T02:15:09;18.80;58.90
39519;DHT22;25200;53.394;10.414;2022-07-23T02:17:34;18.70;58.90
39519;DHT22;25200;53.394;10.414;2022-07-23T02:20:00;18.70;59.20
39519;DHT22;25200;53.394;10.414;2022-07-23T02:22:26;18.70;58.90
39519;DHT22;25200;53.394;10.414;2022-07-23T02:24:52;18.70;59.10
39519;DHT22;25200;53.394;10.414;2022-07-23T02:27:17;18.70;59.20
39519;DHT22;25200;53.394;10.414;2022-07-23T02:29:43;18.60;59.10
39519;DHT22;25200;53.394;10.414;2022-07-23T02:32:08;18.60;59.20
39519;DHT22;25200;53.394;10.414;2022-07-23T02:34:34;18.60;59.30
39519;DHT22;25200;53.394;10.414;2022-07-23T02:37:00;18.50;59.10
39519;DHT22;25200;53.394;10.414;2022-07-23T02:39:26;18.50;59.60
39519;DHT22;25200;53.394;10.414;2022-07-23T02:41:52;18.40;60.10
39519;DHT22;25200;53.394;10.414;2022-07-23T02:44:18;18.40;59.60
39519;DHT22;25200;53.394;10.414;2022-07-23T02:46:43;18.30;59.60
39519;DHT22;25200;53.394;10.414;2022-07-23T02:49:09;18.30;59.80
39519;DHT22;25200;53.394;10.414;2022-07-23T02:51:35;18.30;59.50
39519;DHT22;25200;53.394;10.414;2022-07-23T02:54:01;18.30;59.70
39519;DHT22;25200;53.394;10.414;2022-07-23T02:56:26;18.30;59.60
39519;DHT22;25200;53.394;10.414;2022-07-23T02:58:52;18.30;59.70
39519;DHT22;25200;53.394;10.414;2022-07-23T03:01:18;18.20;59.50
39519;DHT22;25200;53.394;10.414;2022-07-23T03:03:43;18.20;59.20
39519;DHT22;25200;53.394;10.414;2022-07-23T03:06:09;18.20;59.10
39519;DHT22;25200;53.394;10.414;2022-07-23T03:08:34;18.20;58.70
39519;DHT22;25200;53.394;10.414;2022-07-23T03:11:00;18.10;59.40
39519;DHT22;25200;53.394;10.414;2022-07-23T03:13:26;18.10;59.30
39519;DHT22;25200;53.394;10.414;2022-07-23T03:15:51;18.10;59.80
39519;DHT22;25200;53.394;10.414;2022-07-23T03:18:17;18.00;59.60
39519;DHT22;25200;53.394;10.414;2022-07-23T03:20:43;18.00;59.50
39519;DHT22;25200;53.394;10.414;2022-07-23T03:23:08;18.00;59.80
39519;DHT22;25200;53.394;10.414;2022-07-23T03:25:34;18.00;59.90
39519;DHT22;25200;53.394;10.414;2022-07-23T03:28:00;18.00;59.50
39519;DHT22;25200;53.394;10.414;2022-07-23T03:30:25;17.90;59.30
39519;DHT22;25200;53.394;10.414;2022-07-23T03:32:51;17.90;59.30
39519;DHT22;25200;53.394;10.414;2022-07-23T03:35:16;17.80;60.00
39519;DHT22;25200;53.394;10.414;2022-07-23T03:37:42;17.80;60.00
39519;DHT22;25200;53.394;10.414;2022-07-23T03:40:08;17.80;59.90
39519;DHT22;25200;53.394;10.414;2022-07-23T03:42:37;17.80;60.10
39519;DHT22;25200;53.394;10.414;2022-07-23T03:45:04;17.70;59.50
39519;DHT22;25200;53.394;10.414;2022-07-23T03:47:29;17.70;60.30
39519;DHT22;25200;53.394;10.414;2022-07-23T03:49:55;17.70;59.90
39519;DHT22;25200;53.394;10.414;2022-07-23T03:52:21;17.60;59.80
39519;DHT22;25200;53.394;10.414;2022-07-23T03:54:46;17.60;60.10
39519;DHT22;25200;53.394;10.414;2022-07-23T03:57:12;17.60;60.30
39519;DHT22;25200;53.394;10.414;2022-07-23T03:59:38;17.60;59.70
39519;DHT22;25200;53.394;10.414;2022-07-23T04:02:03;17.60;60.00
39519;DHT22;25200;53.394;10.414;2022-07-23T04:04:29;17.60;59.50
39519;DHT22;25200;53.394;10.414;2022-07-23T04:06:54;17.60;59.70
39519;DHT22;25200;53.394;10.414;2022-07-23T04:09:20;17.60;60.00
39519;DHT22;25200;53.394;10.414;2022-07-23T04:11:46;17.70;60.40
39519;DHT22;25200;53.394;10.414;2022-07-23T04:14:11;17.70;59.80
39519;DHT22;25200;53.394;10.414;2022-07-23T04:16:37;17.70;60.10
39519;DHT22;25200;53.394;10.414;2022-07-23T04:19:03;17.80;59.40
39519;DHT22;25200;53.394;10.414;2022-07-23T04:21:30;17.90;59.40
39519;DHT22;25200;53.394;10.414;2022-07-23T04:23:55;17.90;58.90
39519;DHT22;25200;53.394;10.414;2022-07-23T04:26:21;18.00;59.10
39519;DHT22;25200;53.394;10.414;2022-07-23T04:28:47;18.00;59.20
39519;DHT22;25200;53.394;10.414;2022-07-23T04:31:12;18.00;59.00
39519;DHT22;25200;53.394;10.414;2022-07-23T04:33:38;18.00;59.00
39519;DHT22;25200;53.394;10.414;2022-07-23T04:36:04;18.00;58.90
39519;DHT22;25200;53.394;10.414;2022-07-23T04:38:30;18.00;59.10
39519;DHT22;25200;53.394;10.414;2022-07-23T04:40:55;18.00;58.90
39519;DHT22;25200;53.394;10.414;2022-07-23T04:43:21;18.00;59.00
39519;DHT22;25200;53.394;10.414;2022-07-23T04:45:46;17.90;58.60
39519;DHT22;25200;53.394;10.414;2022-07-23T04:48:12;17.90;59.20
39519;DHT22;25200;53.394;10.414;2022-07-23T04:50:38;18.00;59.40
39519;DHT22;25200;53.394;10.414;2022-07-23T04:53:04;17.90;59.20
39519;DHT22;25200;53.394;10.414;2022-07-23T04:55:30;17.90;59.50
39519;DHT22;25200;53.394;10.414;2022-07-23T04:57:55;17.90;59.40
39519;DHT22;25200;53.394;10.414;2022-07-23T05:00:21;17.80;59.40
39519;DHT22;25200;53.394;10.414;2022-07-23T05:02:47;17.80;59.20
39519;DHT22;25200;53.394;10.414;2022-07-23T05:05:12;17.70;60.30
39519;DHT22;25200;53.394;10.414;2022-07-23T05:07:39;17.70;59.70
39519;DHT22;25200;53.394;10.414;2022-07-23T05:10:04;17.70;59.50
39519;DHT22;25200;53.394;10.414;2022-07-23T05:12:30;17.70;60.50
39519;DHT22;25200;53.394;10.414;2022-07-23T05:14:56;17.70;61.60
39519;DHT22;25200;53.394;10.414;2022-07-23T05:17:21;17.60;61.40
39519;DHT22;25200;53.394;10.414;2022-07-23T05:19:47;17.60;61.40
39519;DHT22;25200;53.394;10.414;2022-07-23T05:22:13;17.60;61.90
39519;DHT22;25200;53.394;10.414;2022-07-23T05:24:38;17.60;62.10
39519;DHT22;25200;53.394;10.414;2022-07-23T05:27:04;17.60;61.50
39519;DHT22;25200;53.394;10.414;2022-07-23T05:29:29;17.60;61.50
39519;DHT22;25200;53.394;10.414;2022-07-23T05:31:55;17.60;61.30
39519;DHT22;25200;53.394;10.414;2022-07-23T05:34:21;17.60;60.80
39519;DHT22;25200;53.394;10.414;2022-07-23T05:36:46;17.60;62.00
39519;DHT22;25200;53.394;10.414;2022-07-23T05:39:14;17.60;61.10
39519;DHT22;25200;53.394;10.414;2022-07-23T05:41:40;17.60;61.20
39519;DHT22;25200;53.394;10.414;2022-07-23T05:44:05;17.60;61.30
39519;DHT22;25200;53.394;10.414;2022-07-23T05:46:31;17.60;60.60
39519;DHT22;25200;53.394;10.414;2022-07-23T05:48:56;17.70;60.40
39519;DHT22;25200;53.394;10.414;2022-07-23T05:51:23;17.70;60.70
39519;DHT22;25200;53.394;10.414;2022-07-23T05:53:49;17.70;60.30
39519;DHT22;25200;53.394;10.414;2022-07-23T05:56:15;17.80;60.20
39519;DHT22;25200;53.394;10.414;2022-07-23T05:58:41;17.80;60.20
39519;DHT22;25200;53.394;10.414;2022-07-23T06:01:07;17.80;60.20
39519;DHT22;25200;53.394;10.414;2022-07-23T06:03:32;17.80;59.90
39519;DHT22;25200;53.394;10.414;2022-07-23T06:05:58;17.90;59.90
39519;DHT22;25200;53.394;10.414;2022-07-23T06:08:24;17.90;60.50
39519;DHT22;25200;53.394;10.414;2022-07-23T06:10:49;17.90;60.00
39519;DHT22;25200;53.394;10.414;2022-07-23T06:13:18;17.90;59.80
39519;DHT22;25200;53.394;10.414;2022-07-23T06:15:44;17.90;60.10
39519;DHT22;25200;53.394;10.414;2022-07-23T06:18:09;17.90;60.00
39519;DHT22;25200;53.394;10.414;2022-07-23T06:20:35;18.00;59.80
39519;DHT22;25200;53.394;10.414;2022-07-23T06:23:01;18.10;59.80
39519;DHT22;25200;53.394;10.414;2022-07-23T06:25:26;18.20;59.50
39519;DHT22;25200;53.394;10.414;2022-07-23T06:27:52;18.30;59.80
39519;DHT22;25200;53.394;10.414;2022-07-23T06:30:18;18.40;59.80
39519;DHT22;25200;53.394;10.414;2022-07-23T06:32:47;18.50;59.40
39519;DHT22;25200;53.394;10.414;2022-07-23T06:35:14;18.50;59.60
39519;DHT22;25200;53.394;10.414;2022-07-23T06:37:40;18.60;59.30
39519;DHT22;25200;53.394;10.414;2022-07-23T06:40:06;18.70;59.40
39519;DHT22;25200;53.394;10.414;2022-07-23T06:42:31;18.80;59.50
39519;DHT22;25200;53.394;10.414;2022-07-23T06:44:57;18.80;59.30
39519;DHT22;25200;53.394;10.414;2022-07-23T06:47:23;18.80;59.10
39519;DHT22;25200;53.394;10.414;2022-07-23T06:49:49;18.90;59.20
39519;DHT22;25200;53.394;10.414;2022-07-23T06:52:14;18.90;59.20
39519;DHT22;25200;53.394;10.414;2022-07-23T06:54:40;18.90;59.30
39519;DHT22;25200;53.394;10.414;2022-07-23T06:57:06;19.00;59.30
39519;DHT22;25200;53.394;10.414;2022-07-23T06:59:31;19.00;59.30
39519;DHT22;25200;53.394;10.414;2022-07-23T07:01:58;19.00;59.30
39519;DHT22;25200;53.394;10.414;2022-07-23T07:04:24;19.00;59.10
39519;DHT22;25200;53.394;10.414;2022-07-23T07:06:50;19.00;59.00
39519;DHT22;25200;53.394;10.414;2022-07-23T07:09:15;19.10;59.10
39519;DHT22;25200;53.394;10.414;2022-07-23T07:11:41;19.10;59.10
39519;DHT22;25200;53.394;10.414;2022-07-23T07:14:07;19.20;58.90
39519;DHT22;25200;53.394;10.414;2022-07-23T07:16:32;19.20;58.90
39519;DHT22;25200;53.394;10.414;2022-07-23T07:18:58;19.20;59.10
39519;DHT22;25200;53.394;10.414;2022-07-23T07:21:23;19.30;59.10
39519;DHT22;25200;53.394;10.414;2022-07-23T07:23:49;19.30;58.80
39519;DHT22;25200;53.394;10.414;2022-07-23T07:26:15;19.30;58.90
39519;DHT22;25200;53.394;10.414;2022-07-23T07:28:40;19.30;58.90
39519;DHT22;25200;53.394;10.414;2022-07-23T07:31:06;19.40;58.80
39519;DHT22;25200;53.394;10.414;2022-07-23T07:33:32;19.40;58.70
39519;DHT22;25200;53.394;10.414;2022-07-23T07:35:58;19.40;58.80
39519;DHT22;25200;53.394;10.414;2022-07-23T07:38:23;19.50;58.70
39519;DHT22;25200;53.394;10.414;2022-07-23T07:40:49;19.60;58.80
39519;DHT22;25200;53.394;10.414;2022-07-23T07:43:15;19.60;58.60
39519;DHT22;25200;53.394;10.414;2022-07-23T07:45:40;19.60;58.70
39519;DHT22;25200;53.394;10.414;2022-07-23T07:48:06;19.70;58.60
39519;DHT22;25200;53.394;10.414;2022-07-23T07:50:32;19.70;58.50
39519;DHT22;25200;53.394;10.414;2022-07-23T07:52:58;19.80;58.80
39519;DHT22;25200;53.394;10.414;2022-07-23T07:55:24;19.80;58.60
39519;DHT22;25200;53.394;10.414;2022-07-23T07:57:49;19.90;58.50
39519;DHT22;25200;53.394;10.414;2022-07-23T08:00:15;19.90;58.40
39519;DHT22;25200;53.394;10.414;2022-07-23T08:02:45;19.90;58.40
39519;DHT22;25200;53.394;10.414;2022-07-23T08:05:12;20.00;58.40
39519;DHT22;25200;53.394;10.414;2022-07-23T08:07:38;20.10;58.50
39519;DHT22;25200;53.394;10.414;2022-07-23T08:10:09;20.10;58.30
39519;DHT22;25200;53.394;10.414;2022-07-23T08:13:01;20.20;58.20
39519;DHT22;25200;53.394;10.414;2022-07-23T08:15:28;20.30;58.20
39519;DHT22;25200;53.394;10.414;2022-07-23T08:17:55;20.40;58.10
39519;DHT22;25200;53.394;10.414;2022-07-23T08:20:22;20.40;58.30
39519;DHT22;25200;53.394;10.414;2022-07-23T08:22:52;20.40;57.90
39519;DHT22;25200;53.394;10.414;2022-07-23T08:25:42;20.40;57.90
39519;DHT22;25200;53.394;10.414;2022-07-23T08:28:10;20.40;57.80
39519;DHT22;25200;53.394;10.414;2022-07-23T08:30:36;20.50;57.90
39519;DHT22;25200;53.394;10.414;2022-07-23T08:33:10;20.50;57.70
39519;DHT22;25200;53.394;10.414;2022-07-23T08:35:47;20.60;57.70
39519;DHT22;25200;53.394;10.414;2022-07-23T08:38:15;20.60;57.70
39519;DHT22;25200;53.394;10.414;2022-07-23T08:40:44;20.60;57.60
39519;DHT22;25200;53.394;10.414;2022-07-23T08:43:12;20.70;57.60
39519;DHT22;25200;53.394;10.414;2022-07-23T08:45:43;20.70;57.40
39519;DHT22;25200;53.394;10.414;2022-07-23T08:48:24;20.70;57.40
39519;DHT22;25200;53.394;10.414;2022-07-23T08:50:55;20.70;57.40
39519;DHT22;25200;53.394;10.414;2022-07-23T08:53:22;20.70;57.40
39519;DHT22;25200;53.394;10.414;2022-07-23T08:55:51;20.80;57.30
39519;DHT22;25200;53.394;10.414;2022-07-23T08:58:17;20.80;57.30
39519;DHT22;25200;53.394;10.414;2022-07-23T09:00:43;20.90;57.20
39519;DHT22;25200;53.394;10.414;2022-07-23T09:03:26;21.00;57.30
39519;DHT22;25200;53.394;10.414;2022-07-23T09:05:52;21.20;57.20
39519;DHT22;25200;53.394;10.414;2022-07-23T09:08:20;21.30;57.10
39519;DHT22;25200;53.394;10.414;2022-07-23T09:13:37;21.50;56.70
39519;DHT22;25200;53.394;10.414;2022-07-23T09:18:48;21.40;56.70
39519;DHT22;25200;53.394;10.414;2022-07-23T09:26:31;21.40;56.60
39519;DHT22;25200;53.394;10.414;2022-07-23T09:29:00;21.30;56.50
39519;DHT22;25200;53.394;10.414;2022-07-23T09:31:34;21.20;56.60
39519;DHT22;25200;53.394;10.414;2022-07-23T09:34:09;21.20;56.70
39519;DHT22;25200;53.394;10.414;2022-07-23T09:36:35;21.20;56.80
39519;DHT22;25200;53.394;10.414;2022-07-23T09:39:02;21.10;56.70
39519;DHT22;25200;53.394;10.414;2022-07-23T09:41:43;21.10;56.80
39519;DHT22;25200;53.394;10.414;2022-07-23T09:44:18;21.10;56.90
39519;DHT22;25200;53.394;10.414;2022-07-23T09:46:46;21.10;56.80
39519;DHT22;25200;53.394;10.414;2022-07-23T09:49:13;21.10;56.80
39519;DHT22;25200;53.394;10.414;2022-07-23T09:51:57;21.10;56.80
39519;DHT22;25200;53.394;10.414;2022-07-23T09:54:27;21.10;56.90
39519;DHT22;25200;53.394;10.414;2022-07-23T09:56:55;21.20;56.90
39519;DHT22;25200;53.394;10.414;2022-07-23T09:59:27;21.30;56.90
39519;DHT22;25200;53.394;10.414;2022-07-23T10:01:55;21.50;57.00
39519;DHT22;25200;53.394;10.414;2022-07-23T10:04:22;21.60;56.50
39519;DHT22;25200;53.394;10.414;2022-07-23T10:06:52;21.70;56.30
39519;DHT22;25200;53.394;10.414;2022-07-23T10:09:27;21.80;56.30
39519;DHT22;25200;53.394;10.414;2022-07-23T10:11:54;21.80;56.10
39519;DHT22;25200;53.394;10.414;2022-07-23T10:14:21;21.90;56.00
39519;DHT22;25200;53.394;10.414;2022-07-23T10:16:47;21.80;55.90
39519;DHT22;25200;53.394;10.414;2022-07-23T10:19:13;21.90;55.90
39519;DHT22;25200;53.394;10.414;2022-07-23T10:21:40;21.80;55.70
39519;DHT22;25200;53.394;10.414;2022-07-23T10:30:12;22.00;56.20
39519;DHT22;25200;53.394;10.414;2022-07-23T10:33:14;22.20;56.30
39519;DHT22;25200;53.394;10.414;2022-07-23T10:36:03;22.40;55.90
39519;DHT22;25200;53.394;10.414;2022-07-23T10:39:04;22.50;55.60
39519;DHT22;25200;53.394;10.414;2022-07-23T10:41:40;22.60;55.30
39519;DHT22;25200;53.394;10.414;2022-07-23T10:44:32;22.60;55.40
39519;DHT22;25200;53.394;10.414;2022-07-23T10:47:03;22.70;55.20
39519;DHT22;25200;53.394;10.414;2022-07-23T10:49:39;22.70;55.10
39519;DHT22;25200;53.394;10.414;2022-07-23T10:54:56;22.60;54.50
39519;DHT22;25200;53.394;10.414;2022-07-23T10:57:49;22.60;54.50
39519;DHT22;25200;53.394;10.414;2022-07-23T11:00:25;22.50;54.60
39519;DHT22;25200;53.394;10.414;2022-07-23T11:05:59;22.40;54.50
39519;DHT22;25200;53.394;10.414;2022-07-23T11:08:24;22.30;54.30
39519;DHT22;25200;53.394;10.414;2022-07-23T11:13:31;22.10;54.40
39519;DHT22;25200;53.394;10.414;2022-07-23T11:16:19;22.10;54.60
39519;DHT22;25200;53.394;10.414;2022-07-23T11:24:00;22.50;55.10
39519;DHT22;25200;53.394;10.414;2022-07-23T11:31:55;23.50;54.70
39519;DHT22;25200;53.394;10.414;2022-07-23T11:37:04;24.10;54.20
39519;DHT22;25200;53.394;10.414;2022-07-23T11:39:31;24.40;54.20
39519;DHT22;25200;53.394;10.414;2022-07-23T11:41:58;24.70;53.70
39519;DHT22;25200;53.394;10.414;2022-07-23T11:44:37;24.80;53.00
39519;DHT22;25200;53.394;10.414;2022-07-23T11:47:10;25.00;53.30
39519;DHT22;25200;53.394;10.414;2022-07-23T11:49:39;25.20;53.30
39519;DHT22;25200;53.394;10.414;2022-07-23T11:52:14;25.30;53.10
39519;DHT22;25200;53.394;10.414;2022-07-23T11:55:07;25.40;53.10
39519;DHT22;25200;53.394;10.414;2022-07-23T11:57:35;25.40;53.00
39519;DHT22;25200;53.394;10.414;2022-07-23T12:00:11;25.40;52.70
39519;DHT22;25200;53.394;10.414;2022-07-23T12:02:38;25.50;52.50
39519;DHT22;25200;53.394;10.414;2022-07-23T12:05:05;25.50;52.90
39519;DHT22;25200;53.394;10.414;2022-07-23T12:12:50;25.70;53.00
39519;DHT22;25200;53.394;10.414;2022-07-23T12:15:17;25.80;52.60
39519;DHT22;25200;53.394;10.414;2022-07-23T12:17:45;26.00;52.20
39519;DHT22;25200;53.394;10.414;2022-07-23T12:20:16;26.20;52.60
39519;DHT22;25200;53.394;10.414;2022-07-23T12:22:44;26.20;51.90
39519;DHT22;25200;53.394;10.414;2022-07-23T12:25:15;26.20;51.20
39519;DHT22;25200;53.394;10.414;2022-07-23T12:27:42;26.10;50.90
39519;DHT22;25200;53.394;10.414;2022-07-23T12:30:29;26.00;50.80
39519;DHT22;25200;53.394;10.414;2022-07-23T12:32:57;25.70;50.50
39519;DHT22;25200;53.394;10.414;2022-07-23T12:35:29;25.40;50.70
39519;DHT22;25200;53.394;10.414;2022-07-23T12:38:00;25.20;50.80
39519;DHT22;25200;53.394;10.414;2022-07-23T12:40:41;25.10;51.10
39519;DHT22;25200;53.394;10.414;2022-07-23T12:43:33;25.30;52.20
39519;DHT22;25200;53.394;10.414;2022-07-23T12:46:06;25.60;52.20
39519;DHT22;25200;53.394;10.414;2022-07-23T12:48:34;25.70;52.30
39519;DHT22;25200;53.394;10.414;2022-07-23T12:51:09;25.90;52.10
39519;DHT22;25200;53.394;10.414;2022-07-23T12:53:45;26.00;52.10
39519;DHT22;25200;53.394;10.414;2022-07-23T12:56:16;26.00;51.80
39519;DHT22;25200;53.394;10.414;2022-07-23T12:58:52;26.00;50.70
39519;DHT22;25200;53.394;10.414;2022-07-23T13:04:14;25.80;51.10
39519;DHT22;25200;53.394;10.414;2022-07-23T13:06:51;25.70;50.80
39519;DHT22;25200;53.394;10.414;2022-07-23T13:09:21;25.60;50.60
39519;DHT22;25200;53.394;10.414;2022-07-23T13:11:49;25.60;51.10
39519;DHT22;25200;53.394;10.414;2022-07-23T13:14:16;25.60;51.50
39519;DHT22;25200;53.394;10.414;2022-07-23T13:16:43;25.50;51.60
39519;DHT22;25200;53.394;10.414;2022-07-23T13:19:09;25.50;51.10
39519;DHT22;25200;53.394;10.414;2022-07-23T13:21:35;25.40;51.10
39519;DHT22;25200;53.394;10.414;2022-07-23T13:24:01;25.40;51.50
39519;DHT22;25200;53.394;10.414;2022-07-23T13:26:27;25.30;51.10
39519;DHT22;25200;53.394;10.414;2022-07-23T13:28:53;25.20;51.40
39519;DHT22;25200;53.394;10.414;2022-07-23T13:31:20;25.10;51.30
39519;DHT22;25200;53.394;10.414;2022-07-23T13:33:46;24.90;51.50
39519;DHT22;25200;53.394;10.414;2022-07-23T13:36:12;24.90;51.80
39519;DHT22;25200;53.394;10.414;2022-07-23T13:38:38;25.10;52.50
39519;DHT22;25200;53.394;10.414;2022-07-23T13:41:04;25.30;52.10
39519;DHT22;25200;53.394;10.414;2022-07-23T13:43:30;25.40;52.20
39519;DHT22;25200;53.394;10.414;2022-07-23T13:45:56;25.50;51.90
39519;DHT22;25200;53.394;10.414;2022-07-23T13:48:22;25.50;51.90
39519;DHT22;25200;53.394;10.414;2022-07-23T13:50:49;25.50;51.80
39519;DHT22;25200;53.394;10.414;2022-07-23T13:53:20;25.40;51.60
39519;DHT22;25200;53.394;10.414;2022-07-23T13:55:48;25.30;51.30
39519;DHT22;25200;53.394;10.414;2022-07-23T13:58:15;25.20;52.20
39519;DHT22;25200;53.394;10.414;2022-07-23T14:00:48;25.20;51.80
39519;DHT22;25200;53.394;10.414;2022-07-23T14:03:14;25.20;51.70
39519;DHT22;25200;53.394;10.414;2022-07-23T14:05:40;25.10;51.90
39519;DHT22;25200;53.394;10.414;2022-07-23T14:08:07;25.20;52.30
39519;DHT22;25200;53.394;10.414;2022-07-23T14:10:33;25.30;52.20
39519;DHT22;25200;53.394;10.414;2022-07-23T14:12:58;25.50;52.10
39519;DHT22;25200;53.394;10.414;2022-07-23T14:15:26;25.50;51.60
39519;DHT22;25200;53.394;10.414;2022-07-23T14:17:53;25.50;51.50
39519;DHT22;25200;53.394;10.414;2022-07-23T14:20:19;25.50;51.80
39519;DHT22;25200;53.394;10.414;2022-07-23T14:22:45;25.60;51.70
39519;DHT22;25200;53.394;10.414;2022-07-23T14:25:11;25.60;51.40
39519;DHT22;25200;53.394;10.414;2022-07-23T14:27:37;25.60;51.60
39519;DHT22;25200;53.394;10.414;2022-07-23T14:30:06;25.70;51.70
39519;DHT22;25200;53.394;10.414;2022-07-23T14:32:32;25.80;51.60
39519;DHT22;25200;53.394;10.414;2022-07-23T14:34:57;25.80;51.40
39519;DHT22;25200;53.394;10.414;2022-07-23T14:37:23;25.90;51.70
39519;DHT22;25200;53.394;10.414;2022-07-23T14:39:50;25.90;51.20
39519;DHT22;25200;53.394;10.414;2022-07-23T14:42:16;25.90;51.20
39519;DHT22;25200;53.394;10.414;2022-07-23T14:44:42;25.80;51.00
39519;DHT22;25200;53.394;10.414;2022-07-23T14:47:08;25.70;51.00
39519;DHT22;25200;53.394;10.414;2022-07-23T14:49:34;25.80;51.30
39519;DHT22;25200;53.394;10.414;2022-07-23T14:52:00;25.90;51.30
39519;DHT22;25200;53.394;10.414;2022-07-23T14:54:27;26.10;51.20
39519;DHT22;25200;53.394;10.414;2022-07-23T14:56:54;26.20;51.30
39519;DHT22;25200;53.394;10.414;2022-07-23T14:59:20;26.30;50.90
39519;DHT22;25200;53.394;10.414;2022-07-23T15:01:46;26.40;51.10
39519;DHT22;25200;53.394;10.414;2022-07-23T15:04:12;26.50;50.60
39519;DHT22;25200;53.394;10.414;2022-07-23T15:06:38;26.40;50.10
39519;DHT22;25200;53.394;10.414;2022-07-23T15:09:04;26.30;50.60
39519;DHT22;25200;53.394;10.414;2022-07-23T15:11:31;26.10;50.20
39519;DHT22;25200;53.394;10.414;2022-07-23T15:14:00;26.10;50.40
39519;DHT22;25200;53.394;10.414;2022-07-23T15:16:26;25.90;50.30
39519;DHT22;25200;53.394;10.414;2022-07-23T15:18:52;25.80;50.20
39519;DHT22;25200;53.394;10.414;2022-07-23T15:21:18;25.60;50.30
39519;DHT22;25200;53.394;10.414;2022-07-23T15:23:44;25.50;50.40
39519;DHT22;25200;53.394;10.414;2022-07-23T15:26:09;25.40;50.40
39519;DHT22;25200;53.394;10.414;2022-07-23T15:28:35;25.20;50.30
39519;DHT22;25200;53.394;10.414;2022-07-23T15:31:01;25.10;50.50
39519;DHT22;25200;53.394;10.414;2022-07-23T15:33:27;25.00;50.70
39519;DHT22;25200;53.394;10.414;2022-07-23T15:35:53;24.90;50.90
39519;DHT22;25200;53.394;10.414;2022-07-23T15:38:22;24.90;50.90
39519;DHT22;25200;53.394;10.414;2022-07-23T15:40:48;24.80;51.30
39519;DHT22;25200;53.394;10.414;2022-07-23T15:43:13;24.80;51.00
39519;DHT22;25200;53.394;10.414;2022-07-23T15:45:40;24.80;51.00
39519;DHT22;25200;53.394;10.414;2022-07-23T15:48:06;24.70;51.10
39519;DHT22;25200;53.394;10.414;2022-07-23T15:50:32;24.70;51.10
39519;DHT22;25200;53.394;10.414;2022-07-23T15:52:58;24.70;50.80
39519;DHT22;25200;53.394;10.414;2022-07-23T15:55:24;24.50;50.80
39519;DHT22;25200;53.394;10.414;2022-07-23T15:57:51;24.50;51.00
39519;DHT22;25200;53.394;10.414;2022-07-23T16:00:16;24.40;50.90
39519;DHT22;25200;53.394;10.414;2022-07-23T16:02:42;24.30;51.00
39519;DHT22;25200;53.394;10.414;2022-07-23T16:05:08;24.30;51.00